createdAt,value
2018-04-13T00:00:14.629Z,57.80
2018-04-13T00:00:46.278Z,57.00
2018-04-13T00:01:17.928Z,53.72
2018-04-13T00:01:49.575Z,52.60
2018-04-13T00:02:21.224Z,54.25
2018-04-13T00:02:52.849Z,51.28
2018-04-13T00:03:24.477Z,50.97
2018-04-13T00:03:56.155Z,51.33
2018-04-13T00:04:27.808Z,49.33
2018-04-13T00:04:59.438Z,51.80
2018-04-13T00:05:31.077Z,53.22
2018-04-13T00:06:02.736Z,51.00
2018-04-13T00:06:34.408Z,49.40
2018-04-13T00:07:06.049Z,51.10
2018-04-13T00:07:37.687Z,50.55
2018-04-13T00:08:09.347Z,50.03
2018-04-13T00:08:40.998Z,51.60
2018-04-13T00:09:12.640Z,52.30
2018-04-13T00:09:44.275Z,52.00
2018-04-13T00:10:15.953Z,51.97
2018-04-13T00:10:47.625Z,51.20
2018-04-13T00:11:19.267Z,48.78
2018-04-13T00:11:50.902Z,49.22
2018-04-13T00:12:22.555Z,49.30
2018-04-13T00:12:54.195Z,48.87
2018-04-13T00:13:25.831Z,50.35
2018-04-13T00:13:57.484Z,46.72
2018-04-13T00:14:29.130Z,45.35
2018-04-13T00:15:00.795Z,47.67
2018-04-13T00:15:32.415Z,46.00
2018-04-13T00:16:04.043Z,46.28
2018-04-13T00:16:35.779Z,47.28
2018-04-13T00:17:07.411Z,45.60
2018-04-13T00:17:39.092Z,46.03
2018-04-13T00:18:10.728Z,47.83
2018-04-13T00:18:42.355Z,45.63
2018-04-13T00:19:13.995Z,45.45
2018-04-13T00:19:45.658Z,45.30
2018-04-13T00:20:17.307Z,45.00
2018-04-13T00:20:48.968Z,46.97
2018-04-13T00:21:20.602Z,46.25
2018-04-13T00:21:52.240Z,47.40
2018-04-13T00:22:23.916Z,48.33
2018-04-13T00:22:55.536Z,45.97
2018-04-13T00:23:27.186Z,45.03
2018-04-13T00:23:58.826Z,46.22
2018-04-13T00:24:30.464Z,46.85
2018-04-13T00:25:02.140Z,47.10
2018-04-13T00:25:33.756Z,46.42
2018-04-13T00:26:05.415Z,47.10
2018-04-13T00:26:37.046Z,46.15
2018-04-13T00:27:08.666Z,48.05
2018-04-13T00:27:40.281Z,47.28
2018-04-13T00:28:11.926Z,47.80
2018-04-13T00:28:43.556Z,47.00
2018-04-13T00:29:15.193Z,47.15
2018-04-13T00:29:46.828Z,46.03
2018-04-13T00:30:18.487Z,47.17
2018-04-13T00:30:50.108Z,45.60
2018-04-13T00:31:21.736Z,46.58
2018-04-13T00:31:53.356Z,46.00
2018-04-13T00:32:24.997Z,45.00
2018-04-13T00:32:56.635Z,44.50
2018-04-13T00:33:28.300Z,45.00
2018-04-13T00:33:59.922Z,45.88
2018-04-13T00:34:31.576Z,41.92
2018-04-13T00:35:03.248Z,46.33
2018-04-13T00:35:34.893Z,44.40
2018-04-13T00:36:06.534Z,44.72
2018-04-13T00:36:38.150Z,44.85
2018-04-13T00:37:09.778Z,47.75
2018-04-13T00:37:41.413Z,46.63
2018-04-13T00:38:13.052Z,46.17
2018-04-13T00:38:44.738Z,45.45
2018-04-13T00:39:16.344Z,46.63
2018-04-13T00:39:47.998Z,45.83
2018-04-13T00:40:19.640Z,45.42
2018-04-13T00:40:51.306Z,45.97
2018-04-13T00:41:22.918Z,47.20
2018-04-13T00:41:54.549Z,45.78
2018-04-13T00:42:26.182Z,45.25
2018-04-13T00:42:57.853Z,45.75
2018-04-13T00:43:29.463Z,46.63
2018-04-13T00:44:01.093Z,46.15
2018-04-13T00:44:32.736Z,46.70
2018-04-13T00:45:04.390Z,46.60
2018-04-13T00:45:36.099Z,47.30
2018-04-13T00:46:07.726Z,45.72
2018-04-13T00:46:39.380Z,46.67
2018-04-13T00:47:10.988Z,46.05
2018-04-13T00:47:42.623Z,46.88
2018-04-13T00:48:14.286Z,45.33
2018-04-13T00:48:45.930Z,47.10
2018-04-13T00:49:17.590Z,46.65
2018-04-13T00:49:49.256Z,47.80
2018-04-13T00:50:20.901Z,47.13
2018-04-13T00:50:52.541Z,46.05
2018-04-13T00:51:24.196Z,45.80
2018-04-13T00:51:55.825Z,46.83
2018-04-13T00:52:27.454Z,45.28
2018-04-13T00:53:17.701Z,45.33
2018-04-13T00:53:49.372Z,45.15
2018-04-13T00:54:20.998Z,44.93
2018-04-13T00:54:52.642Z,44.47
2018-04-13T00:55:24.296Z,46.47
2018-04-13T00:55:55.970Z,46.60
2018-04-13T00:56:27.616Z,44.05
2018-04-13T00:56:59.242Z,46.53
2018-04-13T00:57:30.889Z,44.65
2018-04-13T00:58:02.546Z,45.00
2018-04-13T00:58:34.169Z,47.33
2018-04-13T00:59:05.824Z,46.20
2018-04-13T00:59:37.438Z,45.28
2018-04-13T01:00:09.074Z,45.22
2018-04-13T01:00:40.772Z,46.70
2018-04-13T01:01:12.403Z,45.05
2018-04-13T01:01:44.049Z,44.92
2018-04-13T01:02:15.757Z,45.75
2018-04-13T01:02:47.433Z,46.72
2018-04-13T01:03:19.070Z,47.10
2018-04-13T01:03:50.731Z,45.88
2018-04-13T01:04:22.419Z,45.30
2018-04-13T01:04:54.052Z,47.05
2018-04-13T01:05:25.707Z,47.60
2018-04-13T01:05:57.335Z,45.80
2018-04-13T01:06:28.999Z,47.78
2018-04-13T01:07:00.626Z,49.28
2018-04-13T01:07:32.267Z,48.30
2018-04-13T01:08:03.938Z,47.62
2018-04-13T01:08:35.621Z,48.30
2018-04-13T01:09:07.258Z,47.10
2018-04-13T01:09:38.919Z,45.92
2018-04-13T01:10:10.579Z,46.55
2018-04-13T01:10:42.223Z,44.65
2018-04-13T01:11:13.874Z,49.35
2018-04-13T01:11:45.513Z,47.00
2018-04-13T01:12:17.142Z,49.35
2018-04-13T01:12:48.776Z,47.13
2018-04-13T01:13:20.397Z,47.72
2018-04-13T01:13:52.016Z,46.72
2018-04-13T01:14:23.753Z,47.38
2018-04-13T01:14:55.388Z,48.35
2018-04-13T01:15:27.030Z,48.00
2018-04-13T01:15:58.671Z,47.90
2018-04-13T01:16:30.353Z,48.45
2018-04-13T01:17:01.984Z,47.17
2018-04-13T01:17:33.604Z,47.88
2018-04-13T01:18:05.280Z,48.80
2018-04-13T01:18:36.907Z,47.72
2018-04-13T01:19:08.553Z,46.67
2018-04-13T01:19:40.195Z,48.33
2018-04-13T01:20:11.843Z,47.55
2018-04-13T01:20:43.497Z,47.97
2018-04-13T01:21:15.147Z,46.63
2018-04-13T01:21:46.804Z,48.30
2018-04-13T01:22:18.435Z,49.65
2018-04-13T01:22:50.091Z,49.35
2018-04-13T01:23:21.763Z,47.80
2018-04-13T01:23:53.413Z,49.22
2018-04-13T01:24:25.068Z,50.00
2018-04-13T01:24:56.749Z,49.58
2018-04-13T01:25:28.380Z,49.67
2018-04-13T01:26:00.025Z,48.78
2018-04-13T01:26:31.650Z,51.53
2018-04-13T01:27:03.287Z,49.15
2018-04-13T01:27:34.923Z,47.95
2018-04-13T01:28:06.556Z,47.80
2018-04-13T01:28:38.176Z,48.85
2018-04-13T01:29:09.816Z,49.40
2018-04-13T01:29:41.446Z,48.83
2018-04-13T01:30:13.099Z,49.95
2018-04-13T01:30:44.761Z,48.97
2018-04-13T01:31:16.396Z,47.97
2018-04-13T01:31:48.020Z,48.28
2018-04-13T01:32:19.678Z,49.25
2018-04-13T01:32:51.296Z,49.10
2018-04-13T01:33:22.948Z,46.40
2018-04-13T01:33:54.587Z,47.78
2018-04-13T01:34:26.228Z,45.08
2018-04-13T01:34:57.848Z,48.33
2018-04-13T01:35:29.480Z,47.95
2018-04-13T01:36:01.112Z,48.53
2018-04-13T01:36:32.736Z,49.47
2018-04-13T01:37:04.371Z,47.90
2018-04-13T01:37:36.027Z,49.38
2018-04-13T01:38:07.647Z,49.38
2018-04-13T01:38:39.270Z,49.50
2018-04-13T01:39:10.918Z,50.80
2018-04-13T01:39:42.548Z,50.03
2018-04-13T01:40:14.171Z,49.67
2018-04-13T01:40:45.807Z,49.65
2018-04-13T01:41:17.428Z,51.75
2018-04-13T01:41:49.062Z,52.90
2018-04-13T01:42:20.703Z,53.00
2018-04-13T01:42:52.332Z,55.30
2018-04-13T01:43:23.963Z,53.40
2018-04-13T01:43:55.594Z,53.80
2018-04-13T01:44:27.254Z,53.58
2018-04-13T01:44:58.913Z,55.35
2018-04-13T01:45:30.559Z,55.05
2018-04-13T01:46:02.233Z,54.10
2018-04-13T01:46:33.881Z,55.70
2018-04-13T01:47:05.514Z,54.22
2018-04-13T01:47:37.146Z,52.70
2018-04-13T01:48:08.779Z,55.72
2018-04-13T01:48:40.428Z,56.78
2018-04-13T01:49:12.047Z,56.37
2018-04-13T01:49:43.672Z,56.83
2018-04-13T01:50:15.300Z,56.97
2018-04-13T01:50:46.939Z,57.05
2018-04-13T01:51:18.564Z,56.50
2018-04-13T01:51:50.232Z,56.60
2018-04-13T01:52:21.876Z,58.15
2018-04-13T01:52:53.529Z,55.78
2018-04-13T01:53:25.189Z,55.22
2018-04-13T01:53:56.826Z,56.67
2018-04-13T01:54:28.480Z,56.72
2018-04-13T01:55:00.120Z,56.00
2018-04-13T01:55:31.759Z,57.62
2018-04-13T01:56:03.445Z,57.00
2018-04-13T01:56:35.071Z,56.70
2018-04-13T01:57:06.726Z,58.40
2018-04-13T01:57:38.372Z,58.42
2018-04-13T01:58:10.011Z,57.75
2018-04-13T01:58:41.652Z,59.22
2018-04-13T01:59:13.301Z,59.53
2018-04-13T01:59:44.938Z,56.92
2018-04-13T02:00:16.606Z,58.25
2018-04-13T02:00:48.222Z,57.17
2018-04-13T02:01:19.861Z,56.08
2018-04-13T02:01:51.504Z,57.80
2018-04-13T02:02:23.202Z,57.92
2018-04-13T02:02:54.862Z,56.33
2018-04-13T02:03:26.508Z,57.83
2018-04-13T02:03:58.159Z,55.45
2018-04-13T02:04:29.790Z,56.55
2018-04-13T02:05:01.414Z,55.70
2018-04-13T02:05:33.047Z,56.30
2018-04-13T02:06:04.716Z,55.38
2018-04-13T02:06:36.378Z,54.28
2018-04-13T02:07:08.053Z,55.60
2018-04-13T02:07:39.696Z,55.90
2018-04-13T02:08:11.343Z,55.63
2018-04-13T02:08:42.968Z,56.47
2018-04-13T02:09:14.608Z,56.35
2018-04-13T02:09:46.268Z,55.40
2018-04-13T02:10:17.915Z,53.30
2018-04-13T02:10:49.582Z,55.33
2018-04-13T02:11:21.224Z,55.28
2018-04-13T02:11:52.854Z,53.63
2018-04-13T02:12:24.520Z,53.78
2018-04-13T02:12:56.172Z,52.88
2018-04-13T02:13:27.777Z,53.87
2018-04-13T02:13:59.430Z,53.65
2018-04-13T02:14:31.082Z,53.22
2018-04-13T02:15:02.782Z,55.47
2018-04-13T02:15:34.423Z,55.05
2018-04-13T02:16:06.070Z,53.65
2018-04-13T02:16:37.747Z,54.00
2018-04-13T02:17:09.417Z,52.88
2018-04-13T02:17:41.086Z,53.83
2018-04-13T02:18:12.706Z,52.97
2018-04-13T02:18:44.334Z,52.40
2018-04-13T02:19:15.938Z,53.53
2018-04-13T02:19:47.590Z,52.53
2018-04-13T02:20:19.241Z,53.33
2018-04-13T02:20:50.904Z,52.72
2018-04-13T02:21:22.549Z,53.85
2018-04-13T02:21:54.165Z,54.72
2018-04-13T02:22:25.839Z,55.17
2018-04-13T02:22:57.490Z,54.30
2018-04-13T02:23:29.122Z,53.38
2018-04-13T02:24:00.755Z,53.92
2018-04-13T02:24:32.421Z,53.13
2018-04-13T02:25:04.344Z,53.60
2018-04-13T02:25:36.281Z,53.15
2018-04-13T02:26:07.899Z,53.28
2018-04-13T02:26:39.555Z,52.35
2018-04-13T02:27:11.187Z,52.10
2018-04-13T02:27:42.823Z,51.22
2018-04-13T02:28:14.452Z,54.25
2018-04-13T02:28:46.079Z,51.35
2018-04-13T02:29:17.691Z,52.95
2018-04-13T02:29:49.353Z,51.45
2018-04-13T02:30:21.005Z,50.33
2018-04-13T02:30:52.641Z,51.03
2018-04-13T02:31:24.269Z,51.83
2018-04-13T02:31:55.893Z,52.10
2018-04-13T02:32:27.511Z,53.10
2018-04-13T02:32:59.185Z,50.65
2018-04-13T02:33:30.829Z,51.65
2018-04-13T02:34:02.483Z,51.08
2018-04-13T02:34:34.152Z,51.05
2018-04-13T02:35:05.798Z,52.50
2018-04-13T02:35:37.474Z,52.60
2018-04-13T02:36:09.137Z,51.45
2018-04-13T02:36:40.773Z,50.65
2018-04-13T02:37:12.419Z,52.00
2018-04-13T02:37:44.050Z,52.50
2018-04-13T02:38:15.721Z,50.88
2018-04-13T02:38:47.355Z,51.60
2018-04-13T02:39:18.997Z,49.70
2018-04-13T02:39:50.639Z,51.13
2018-04-13T02:40:22.262Z,49.95
2018-04-13T02:40:53.907Z,51.63
2018-04-13T02:41:25.511Z,50.95
2018-04-13T02:41:57.132Z,51.20
2018-04-13T02:42:28.770Z,51.90
2018-04-13T02:43:00.432Z,51.45
2018-04-13T02:43:32.065Z,51.72
2018-04-13T02:44:03.704Z,51.67
2018-04-13T02:44:35.364Z,51.90
2018-04-13T02:45:07.000Z,50.38
2018-04-13T02:45:38.624Z,52.28
2018-04-13T02:46:10.250Z,52.50
2018-04-13T02:46:41.876Z,49.72
2018-04-13T02:47:13.511Z,51.45
2018-04-13T02:47:45.142Z,51.30
2018-04-13T02:48:16.804Z,51.70
2018-04-13T02:48:48.485Z,50.20
2018-04-13T02:49:20.143Z,50.03
2018-04-13T02:49:51.760Z,51.55
2018-04-13T02:50:23.391Z,52.55
2018-04-13T02:50:55.033Z,50.70
2018-04-13T02:51:26.676Z,51.37
2018-04-13T02:51:58.327Z,51.70
2018-04-13T02:52:30.002Z,52.55
2018-04-13T02:53:01.619Z,53.13
2018-04-13T02:53:33.254Z,51.15
2018-04-13T02:54:04.912Z,52.13
2018-04-13T02:54:36.566Z,50.03
2018-04-13T02:55:08.186Z,49.95
2018-04-13T02:55:39.868Z,49.72
2018-04-13T02:56:11.506Z,49.03
2018-04-13T02:56:43.158Z,49.85
2018-04-13T02:57:14.786Z,51.08
2018-04-13T02:57:46.416Z,50.40
2018-04-13T02:58:18.046Z,51.55
2018-04-13T02:58:49.692Z,50.25
2018-04-13T02:59:21.343Z,50.75
2018-04-13T02:59:52.966Z,51.30
2018-04-13T03:00:24.608Z,49.65
2018-04-13T03:00:56.252Z,50.47
2018-04-13T03:01:27.916Z,49.35
2018-04-13T03:01:59.551Z,50.12
2018-04-13T03:02:31.185Z,50.15
2018-04-13T03:03:02.835Z,48.35
2018-04-13T03:03:34.466Z,47.72
2018-04-13T03:04:06.110Z,49.38
2018-04-13T03:04:37.737Z,48.67
2018-04-13T03:05:09.383Z,47.00
2018-04-13T03:05:41.041Z,48.50
2018-04-13T03:06:12.679Z,47.65
2018-04-13T03:06:44.307Z,48.95
2018-04-13T03:07:15.955Z,49.95
2018-04-13T03:07:47.586Z,50.40
2018-04-13T03:08:19.236Z,49.40
2018-04-13T03:08:50.865Z,48.40
2018-04-13T03:09:22.504Z,48.30
2018-04-13T03:09:54.178Z,51.30
2018-04-13T03:10:25.827Z,48.22
2018-04-13T03:10:57.462Z,50.22
2018-04-13T03:11:29.096Z,49.88
2018-04-13T03:12:00.736Z,49.30
2018-04-13T03:12:32.362Z,48.35
2018-04-13T03:13:03.978Z,48.28
2018-04-13T03:13:35.610Z,48.33
2018-04-13T03:14:07.255Z,47.55
2018-04-13T03:14:38.880Z,48.03
2018-04-13T03:15:10.528Z,48.90
2018-04-13T03:15:42.160Z,48.53
2018-04-13T03:16:13.831Z,48.67
2018-04-13T03:16:45.490Z,48.87
2018-04-13T03:17:17.132Z,48.92
2018-04-13T03:17:48.791Z,48.65
2018-04-13T03:18:20.413Z,48.15
2018-04-13T03:18:52.094Z,48.47
2018-04-13T03:19:23.686Z,48.95
2018-04-13T03:19:55.337Z,48.90
2018-04-13T03:20:26.982Z,50.58
2018-04-13T03:20:58.602Z,50.60
2018-04-13T03:21:30.215Z,48.80
2018-04-13T03:22:01.857Z,49.13
2018-04-13T03:22:33.502Z,47.97
2018-04-13T03:23:05.164Z,46.67
2018-04-13T03:23:36.778Z,48.35
2018-04-13T03:24:08.420Z,48.22
2018-04-13T03:24:40.040Z,48.00
2018-04-13T03:25:11.680Z,48.42
2018-04-13T03:25:43.327Z,48.17
2018-04-13T03:26:14.984Z,49.95
2018-04-13T03:26:46.616Z,48.22
2018-04-13T03:27:18.224Z,47.22
2018-04-13T03:27:49.876Z,48.33
2018-04-13T03:28:21.508Z,45.85
2018-04-13T03:28:53.142Z,47.70
2018-04-13T03:29:24.768Z,49.03
2018-04-13T03:29:56.405Z,48.80
2018-04-13T03:30:28.036Z,48.75
2018-04-13T03:30:59.700Z,47.90
2018-04-13T03:31:31.320Z,47.78
2018-04-13T03:32:02.956Z,50.05
2018-04-13T03:32:34.590Z,49.25
2018-04-13T03:33:06.222Z,48.25
2018-04-13T03:33:37.869Z,46.15
2018-04-13T03:34:09.516Z,46.67
2018-04-13T03:34:41.132Z,48.53
2018-04-13T03:35:12.762Z,45.22
2018-04-13T03:35:44.412Z,45.58
2018-04-13T03:36:16.051Z,45.78
2018-04-13T03:36:47.679Z,45.45
2018-04-13T03:37:19.307Z,46.92
2018-04-13T03:37:50.950Z,47.08
2018-04-13T03:38:22.568Z,47.35
2018-04-13T03:38:54.198Z,46.65
2018-04-13T03:39:25.875Z,46.58
2018-04-13T03:39:57.501Z,46.22
2018-04-13T03:40:29.104Z,45.40
2018-04-13T03:41:00.727Z,45.75
2018-04-13T03:41:32.396Z,47.88
2018-04-13T03:42:04.065Z,46.17
2018-04-13T03:42:35.708Z,46.22
2018-04-13T03:43:07.331Z,45.97
2018-04-13T03:43:38.981Z,45.05
2018-04-13T03:44:10.614Z,45.40
2018-04-13T03:44:42.251Z,47.72
2018-04-13T03:45:13.883Z,45.33
2018-04-13T03:45:45.510Z,46.00
2018-04-13T03:46:17.133Z,47.75
2018-04-13T03:46:48.801Z,48.00
2018-04-13T03:47:20.428Z,47.83
2018-04-13T03:47:52.064Z,47.85
2018-04-13T03:48:23.690Z,47.88
2018-04-13T03:48:55.332Z,48.97
2018-04-13T03:49:27.055Z,47.00
2018-04-13T03:49:58.684Z,47.17
2018-04-13T03:50:30.310Z,48.38
2018-04-13T03:51:01.948Z,47.10
2018-04-13T03:51:33.604Z,47.58
2018-04-13T03:52:05.274Z,47.95
2018-04-13T03:52:36.891Z,47.05
2018-04-13T03:53:08.547Z,44.95
2018-04-13T03:53:40.200Z,46.85
2018-04-13T03:54:11.840Z,48.65
2018-04-13T03:54:43.506Z,48.22
2018-04-13T03:55:15.129Z,46.85
2018-04-13T03:55:46.761Z,48.80
2018-04-13T03:56:18.401Z,49.20
2018-04-13T03:56:50.014Z,48.13
2018-04-13T03:57:21.624Z,49.08
2018-04-13T03:57:53.246Z,48.78
2018-04-13T03:58:24.895Z,49.63
2018-04-13T03:58:56.533Z,49.45
2018-04-13T03:59:28.156Z,49.47
2018-04-13T03:59:59.799Z,52.00
2018-04-13T04:00:31.451Z,51.22
2018-04-13T04:01:03.087Z,51.88
2018-04-13T04:01:34.715Z,53.92
2018-04-13T04:02:06.372Z,51.50
2018-04-13T04:02:37.973Z,51.33
2018-04-13T04:03:09.575Z,54.22
2018-04-13T04:03:41.212Z,54.75
2018-04-13T04:04:12.865Z,50.67
2018-04-13T04:04:44.502Z,50.20
2018-04-13T04:05:16.129Z,51.83
2018-04-13T04:05:47.771Z,52.03
2018-04-13T04:06:19.403Z,50.45
2018-04-13T04:06:51.055Z,50.67
2018-04-13T04:07:22.677Z,49.58
2018-04-13T04:07:54.325Z,50.33
2018-04-13T04:08:25.953Z,49.08
2018-04-13T04:08:57.603Z,49.50
2018-04-13T04:09:29.257Z,50.72
2018-04-13T04:10:00.881Z,49.30
2018-04-13T04:10:32.553Z,51.15
2018-04-13T04:11:04.189Z,51.50
2018-04-13T04:11:35.815Z,51.20
2018-04-13T04:12:07.447Z,49.85
2018-04-13T04:12:39.103Z,51.15
2018-04-13T04:13:10.747Z,52.22
2018-04-13T04:13:42.384Z,50.03
2018-04-13T04:14:14.004Z,51.65
2018-04-13T04:14:45.638Z,51.22
2018-04-13T04:15:17.280Z,49.60
2018-04-13T04:15:48.924Z,48.53
2018-04-13T04:16:20.582Z,47.55
2018-04-13T04:16:52.227Z,48.45
2018-04-13T04:17:23.850Z,50.92
2018-04-13T04:17:55.483Z,49.25
2018-04-13T04:18:27.106Z,46.83
2018-04-13T04:18:58.748Z,47.97
2018-04-13T04:19:49.080Z,47.67
2018-04-13T04:20:39.340Z,47.85
2018-04-13T04:21:29.410Z,48.35
2018-04-13T04:22:29.253Z,46.67
2018-04-13T04:23:19.325Z,48.28
2018-04-13T04:24:09.491Z,50.08
2018-04-13T04:24:59.713Z,51.55
2018-04-13T04:26:01.555Z,50.72
2018-04-13T04:26:46.377Z,48.72
2018-04-13T04:27:18.016Z,48.03
2018-04-13T04:27:49.636Z,48.83
2018-04-13T04:28:21.282Z,50.12
2018-04-13T04:28:52.906Z,48.25
2018-04-13T04:29:24.538Z,47.90
2018-04-13T04:29:56.176Z,47.95
2018-04-13T04:30:27.786Z,48.50
2018-04-13T04:30:59.420Z,47.35
2018-04-13T04:31:31.052Z,47.95
2018-04-13T04:32:02.698Z,46.45
2018-04-13T04:32:34.350Z,48.78
2018-04-13T04:33:05.977Z,47.90
2018-04-13T04:33:37.628Z,47.00
2018-04-13T04:34:09.274Z,48.55
2018-04-13T04:34:40.898Z,49.63
2018-04-13T04:35:12.530Z,47.53
2018-04-13T04:35:44.163Z,48.35
2018-04-13T04:36:15.784Z,47.17
2018-04-13T04:36:47.408Z,47.53
2018-04-13T04:37:19.020Z,46.03
2018-04-13T04:37:50.702Z,46.35
2018-04-13T04:38:22.359Z,46.22
2018-04-13T04:38:53.991Z,46.55
2018-04-13T04:39:25.618Z,46.00
2018-04-13T04:39:57.248Z,47.20
2018-04-13T04:40:28.892Z,46.40
2018-04-13T04:41:00.537Z,46.10
2018-04-13T04:41:32.188Z,47.40
2018-04-13T04:42:03.848Z,48.58
2018-04-13T04:42:35.490Z,46.88
2018-04-13T04:43:07.116Z,48.67
2018-04-13T04:43:38.744Z,47.83
2018-04-13T04:44:10.388Z,47.78
2018-04-13T04:44:42.020Z,48.00
2018-04-13T04:45:13.909Z,49.92
2018-04-13T04:45:45.536Z,51.45
2018-04-13T04:46:17.218Z,50.47
2018-04-13T04:46:48.834Z,51.17
2018-04-13T04:47:20.468Z,51.17
2018-04-13T04:47:52.095Z,52.45
2018-04-13T04:48:25.680Z,54.58
2018-04-13T04:48:57.286Z,55.83
2018-04-13T04:49:28.952Z,57.13
2018-04-13T04:50:00.584Z,59.03
2018-04-13T04:50:32.208Z,58.38
2018-04-13T04:51:03.854Z,58.75
2018-04-13T04:51:35.491Z,60.38
2018-04-13T04:52:07.123Z,59.08
2018-04-13T04:52:38.742Z,58.80
2018-04-13T04:53:10.349Z,57.05
2018-04-13T04:53:41.969Z,57.88
2018-04-13T04:54:13.614Z,57.67
2018-04-13T04:54:45.249Z,56.15
2018-04-13T04:55:16.882Z,54.97
2018-04-13T04:55:48.523Z,55.78
2018-04-13T04:56:20.157Z,54.05
2018-04-13T04:56:51.783Z,55.28
2018-04-13T04:57:23.411Z,53.17
2018-04-13T04:57:55.038Z,53.47
2018-04-13T04:58:26.706Z,52.75
2018-04-13T04:58:58.330Z,49.70
2018-04-13T04:59:29.952Z,49.08
2018-04-13T05:00:01.585Z,47.90
2018-04-13T05:00:33.233Z,48.67
2018-04-13T05:01:04.843Z,48.45
2018-04-13T05:01:36.476Z,46.50
2018-04-13T05:02:08.145Z,48.42
2018-04-13T05:02:39.760Z,50.12
2018-04-13T05:03:11.419Z,49.00
2018-04-13T05:03:43.094Z,50.92
2018-04-13T05:04:14.724Z,46.30
2018-04-13T05:04:46.370Z,47.80
2018-04-13T05:05:18.000Z,48.08
2018-04-13T05:05:49.633Z,47.80
2018-04-13T05:06:21.274Z,47.85
2018-04-13T05:06:52.910Z,46.67
2018-04-13T05:07:24.555Z,46.25
2018-04-13T05:07:56.182Z,45.55
2018-04-13T05:08:27.820Z,45.75
2018-04-13T05:08:59.479Z,46.75
2018-04-13T05:09:31.113Z,45.67
2018-04-13T05:10:02.798Z,48.53
2018-04-13T05:10:34.402Z,45.50
2018-04-13T05:11:06.050Z,43.60
2018-04-13T05:11:37.702Z,45.50
2018-04-13T05:12:09.358Z,43.55
2018-04-13T05:12:40.991Z,44.33
2018-04-13T05:13:12.612Z,43.95
2018-04-13T05:13:44.249Z,41.40
2018-04-13T05:14:15.886Z,43.05
2018-04-13T05:14:47.498Z,41.10
2018-04-13T05:15:19.118Z,42.05
2018-04-13T05:15:50.742Z,44.50
2018-04-13T05:16:22.396Z,41.30
2018-04-13T05:16:54.023Z,42.28
2018-04-13T05:17:25.642Z,42.70
2018-04-13T05:17:57.278Z,43.63
2018-04-13T05:18:28.916Z,43.30
2018-04-13T05:19:00.538Z,43.38
2018-04-13T05:19:32.207Z,45.50
2018-04-13T05:20:03.859Z,42.50
2018-04-13T05:20:35.484Z,43.35
2018-04-13T05:21:07.129Z,43.28
2018-04-13T05:21:38.772Z,42.00
2018-04-13T05:22:10.404Z,40.55
2018-04-13T05:22:42.024Z,40.90
2018-04-13T05:23:13.690Z,43.30
2018-04-13T05:23:45.332Z,41.13
2018-04-13T05:24:16.981Z,41.00
2018-04-13T05:24:48.690Z,41.20
2018-04-13T05:25:20.308Z,41.28
2018-04-13T05:25:51.940Z,43.95
2018-04-13T05:26:23.564Z,41.13
2018-04-13T05:26:55.224Z,41.88
2018-04-13T05:27:26.857Z,45.80
2018-04-13T05:27:58.520Z,48.20
2018-04-13T05:28:30.141Z,46.25
2018-04-13T05:29:01.825Z,49.00
2018-04-13T05:29:33.451Z,49.00
2018-04-13T05:30:05.127Z,49.60
2018-04-13T05:30:36.762Z,51.53
2018-04-13T05:31:08.392Z,48.17
2018-04-13T05:31:40.019Z,47.90
2018-04-13T05:32:11.639Z,49.83
2018-04-13T05:32:43.299Z,51.83
2018-04-13T05:33:14.924Z,49.80
2018-04-13T05:33:46.577Z,51.92
2018-04-13T05:34:18.198Z,51.83
2018-04-13T05:34:49.823Z,54.60
2018-04-13T05:35:21.478Z,55.72
2018-04-13T05:35:53.083Z,56.45
2018-04-13T05:36:24.713Z,59.67
2018-04-13T05:36:56.335Z,60.45
2018-04-13T05:37:27.961Z,58.28
2018-04-13T05:37:59.574Z,61.75
2018-04-13T05:38:31.209Z,66.97
2018-04-13T05:39:02.914Z,67.05
2018-04-13T05:39:34.585Z,67.68
2018-04-13T05:40:06.219Z,70.97
2018-04-13T05:40:37.876Z,71.75
2018-04-13T05:41:09.525Z,72.55
2018-04-13T05:41:41.145Z,71.62
2018-04-13T05:42:12.760Z,73.05
2018-04-13T05:42:44.397Z,70.68
2018-04-13T05:43:16.029Z,70.85
2018-04-13T05:43:47.658Z,71.80
2018-04-13T05:44:19.304Z,70.87
2018-04-13T05:44:50.935Z,68.93
2018-04-13T05:45:22.568Z,70.43
2018-04-13T05:45:54.199Z,70.40
2018-04-13T05:46:25.831Z,67.80
2018-04-13T05:46:57.449Z,66.87
2018-04-13T05:47:29.085Z,69.72
2018-04-13T05:48:00.811Z,70.15
2018-04-13T05:48:32.463Z,68.82
2018-04-13T05:49:04.110Z,68.72
2018-04-13T05:49:35.755Z,69.68
2018-04-13T05:50:07.377Z,67.90
2018-04-13T05:50:39.016Z,73.62
2018-04-13T05:51:10.680Z,73.70
2018-04-13T05:51:42.309Z,71.68
2018-04-13T05:52:13.945Z,71.30
2018-04-13T05:52:45.618Z,70.37
2018-04-13T05:53:17.273Z,70.25
2018-04-13T05:53:48.942Z,72.78
2018-04-13T05:54:20.554Z,71.78
2018-04-13T05:54:52.202Z,70.68
2018-04-13T05:55:23.870Z,70.50
2018-04-13T05:55:55.502Z,67.95
2018-04-13T05:56:27.144Z,67.65
2018-04-13T05:56:58.783Z,68.22
2018-04-13T05:57:45.332Z,66.72
2018-04-13T05:58:16.998Z,66.03
2018-04-13T05:58:48.640Z,61.50
2018-04-13T05:59:20.270Z,64.72
2018-04-13T05:59:51.898Z,62.90
2018-04-13T06:00:23.567Z,62.25
2018-04-13T06:00:55.244Z,62.15
2018-04-13T06:01:26.915Z,62.75
2018-04-13T06:01:58.550Z,60.58
2018-04-13T06:02:30.216Z,60.17
2018-04-13T06:03:01.872Z,62.95
2018-04-13T06:03:33.508Z,60.97
2018-04-13T06:04:05.174Z,60.55
2018-04-13T06:04:36.832Z,59.63
2018-04-13T06:05:08.484Z,60.40
2018-04-13T06:05:40.120Z,61.45
2018-04-13T06:06:11.752Z,58.35
2018-04-13T06:06:43.430Z,60.10
2018-04-13T06:07:15.057Z,60.03
2018-04-13T06:07:46.703Z,59.10
2018-04-13T06:08:18.332Z,58.53
2018-04-13T06:08:50.054Z,56.63
2018-04-13T06:09:21.703Z,59.78
2018-04-13T06:09:53.525Z,60.20
2018-04-13T06:10:25.165Z,59.72
2018-04-13T06:10:56.793Z,59.08
2018-04-13T06:11:28.480Z,58.50
2018-04-13T06:12:00.123Z,58.08
2018-04-13T06:12:31.733Z,59.42
2018-04-13T06:13:03.362Z,60.40
2018-04-13T06:13:34.996Z,58.15
2018-04-13T06:14:06.628Z,58.13
2018-04-13T06:14:38.261Z,58.70
2018-04-13T06:15:09.888Z,57.85
2018-04-13T06:15:41.519Z,57.17
2018-04-13T06:16:13.170Z,57.25
2018-04-13T06:16:44.808Z,59.92
2018-04-13T06:17:16.464Z,60.75
2018-04-13T06:17:48.084Z,59.70
2018-04-13T06:18:19.718Z,60.63
2018-04-13T06:18:51.363Z,59.53
2018-04-13T06:19:22.982Z,58.85
2018-04-13T06:19:54.662Z,60.88
2018-04-13T06:20:26.291Z,58.35
2018-04-13T06:20:57.934Z,57.58
2018-04-13T06:21:29.578Z,59.05
2018-04-13T06:22:01.208Z,59.10
2018-04-13T06:22:32.842Z,59.15
2018-04-13T06:23:04.467Z,58.65
2018-04-13T06:23:36.144Z,59.13
2018-04-13T06:24:07.787Z,59.15
2018-04-13T06:24:39.416Z,60.72
2018-04-13T06:25:11.040Z,57.25
2018-04-13T06:25:42.674Z,59.58
2018-04-13T06:26:14.301Z,59.72
2018-04-13T06:26:45.923Z,57.85
2018-04-13T06:27:17.548Z,57.65
2018-04-13T06:27:49.186Z,58.25
2018-04-13T06:28:20.845Z,56.05
2018-04-13T06:28:52.737Z,58.13
2018-04-13T06:29:24.388Z,56.28
2018-04-13T06:29:56.030Z,56.60
2018-04-13T06:30:27.654Z,55.85
2018-04-13T06:30:59.298Z,55.45
2018-04-13T06:31:30.930Z,56.42
2018-04-13T06:32:02.594Z,57.55
2018-04-13T06:32:34.229Z,55.88
2018-04-13T06:33:05.885Z,57.10
2018-04-13T06:33:37.510Z,57.33
2018-04-13T06:34:09.132Z,57.95
2018-04-13T06:34:40.766Z,57.40
2018-04-13T06:35:12.388Z,57.83
2018-04-13T06:35:44.004Z,56.30
2018-04-13T06:36:15.652Z,60.55
2018-04-13T06:36:47.320Z,59.83
2018-04-13T06:37:18.959Z,60.27
2018-04-13T06:37:50.590Z,58.15
2018-04-13T06:38:22.224Z,58.92
2018-04-13T06:38:53.874Z,58.47
2018-04-13T06:39:25.534Z,60.80
2018-04-13T06:39:57.196Z,59.08
2018-04-13T06:40:28.818Z,61.25
2018-04-13T06:41:00.458Z,61.35
2018-04-13T06:41:32.123Z,62.83
2018-04-13T06:42:03.759Z,64.15
2018-04-13T06:42:35.398Z,64.10
2018-04-13T06:43:07.052Z,65.35
2018-04-13T06:43:38.738Z,65.18
2018-04-13T06:44:10.338Z,64.57
2018-04-13T06:44:41.963Z,65.97
2018-04-13T06:45:13.624Z,64.68
2018-04-13T06:45:45.257Z,65.12
2018-04-13T06:46:16.898Z,64.28
2018-04-13T06:46:48.824Z,63.13
2018-04-13T06:47:20.449Z,62.58
2018-04-13T06:47:52.073Z,61.55
2018-04-13T06:48:23.728Z,59.40
2018-04-13T06:48:55.435Z,58.87
2018-04-13T06:49:27.012Z,61.22
2018-04-13T06:49:58.646Z,59.77
2018-04-13T06:50:30.290Z,58.65
2018-04-13T06:51:01.921Z,59.20